Time;durP1;ratioP1;P1;durP2;ratioP2;P2;SDS_P1;SDS_P2;PMS_P1;PMS_P2;Temp;Humidity;BMP_temperature;BMP_pressure;BME280_temperature;BME280_humidity;BME280_pressure;Samples;Min_cycle;Max_cycle;Signal;HPM_P1;HPM_P2
2023/08/23 00:00:36;;;;;;;2.30;2.20;;;;;;;24.98;nan;100825.38;4987532;28;20026;-77
2023/08/23 00:03:02;;;;;;;2.80;2.60;;;;;;;24.97;nan;100826.34;4975788;28;20026;-77
2023/08/23 00:05:27;;;;;;;2.83;2.72;;;;;;;24.98;nan;100837.81;4996222;28;20748;-77
2023/08/23 00:07:53;;;;;;;2.58;2.42;;;;;;;24.97;nan;100834.31;4967753;28;20069;-77
2023/08/23 00:10:18;;;;;;;2.40;2.30;;;;;;;24.98;nan;100843.97;4984695;28;20406;-77
2023/08/23 00:12:43;;;;;;;2.40;2.30;;;;;;;24.98;nan;100843.13;4982469;28;20050;-76
2023/08/23 00:15:09;;;;;;;2.85;2.65;;;;;;;24.98;nan;100833.34;4963754;28;20030;-77
2023/08/23 00:17:34;;;;;;;2.63;2.42;;;;;;;24.98;nan;100838.66;4985587;28;20113;-77
2023/08/23 00:20:00;;;;;;;2.92;2.72;;;;;;;24.98;nan;100833.34;4985927;28;20030;-76
2023/08/23 00:22:25;;;;;;;2.30;2.20;;;;;;;24.98;nan;100837.81;4988886;28;20041;-76
2023/08/23 00:24:50;;;;;;;2.47;2.38;;;;;;;24.98;nan;100837.81;4995564;28;20038;-76
2023/08/23 00:27:16;;;;;;;2.58;2.38;;;;;;;24.97;nan;100831.69;4984793;28;20174;-77
2023/08/23 00:29:41;;;;;;;2.90;2.70;;;;;;;24.98;nan;100836.00;4983167;28;20071;-76
2023/08/23 00:32:06;;;;;;;2.20;2.10;;;;;;;24.98;nan;100829.84;4981963;28;20030;-76
2023/08/23 00:34:32;;;;;;;2.40;2.30;;;;;;;24.97;nan;100833.50;4983535;28;20032;-76
2023/08/23 00:36:57;;;;;;;2.60;2.45;;;;;;;24.98;nan;100837.81;4986245;28;20479;-76
2023/08/23 00:39:23;;;;;;;2.30;2.20;;;;;;;24.98;nan;100833.34;4984032;28;20212;-77
2023/08/23 00:41:48;;;;;;;2.70;2.50;;;;;;;24.97;nan;100829.00;4984076;28;20032;-75
2023/08/23 00:44:14;;;;;;;2.60;2.42;;;;;;;24.98;nan;100832.50;4977888;28;20799;-75
2023/08/23 00:46:39;;;;;;;2.85;2.70;;;;;;;24.98;nan;100828.03;4982576;28;20024;-76
2023/08/23 00:49:05;;;;;;;2.70;2.50;;;;;;;24.97;nan;100831.69;4982281;28;21394;-76
2023/08/23 00:51:31;;;;;;;2.85;2.65;;;;;;;24.98;nan;100827.19;4982279;28;20026;-76
2023/08/23 00:53:57;;;;;;;2.60;2.50;;;;;;;24.98;nan;100832.50;4995268;28;20061;-76
2023/08/23 00:56:22;;;;;;;2.50;2.40;;;;;;;24.97;nan;100818.38;4982102;28;20878;-76
2023/08/23 00:58:48;;;;;;;2.58;2.45;;;;;;;24.97;nan;100829.00;4966696;28;20025;-76
2023/08/23 01:01:13;;;;;;;2.70;2.50;;;;;;;24.97;nan;100834.31;4982557;28;20034;-76
2023/08/23 01:03:39;;;;;;;2.90;2.65;;;;;;;24.97;nan;100842.28;4983656;28;20577;-76
2023/08/23 01:06:10;;;;;;;2.67;2.47;;;;;;;24.97;nan;100830.84;4981303;28;20033;-76
2023/08/23 01:08:56;;;;;;;2.85;2.67;;;;;;;24.97;nan;100831.69;4984469;28;20038;-76
2023/08/23 01:11:27;;;;;;;2.67;2.58;;;;;;;24.97;nan;100831.69;4982502;28;20040;-77
2023/08/23 01:14:12;;;;;;;2.80;2.60;;;;;;;24.96;nan;100830.00;4961601;28;20080;-75
2023/08/23 01:16:38;;;;;;;2.60;2.50;;;;;;;24.97;nan;100829.00;4982291;28;20045;-76
2023/08/23 01:19:39;;;;;;;2.20;2.10;;;;;;;24.96;nan;100830.00;4985247;28;20030;-76
2023/08/23 01:22:06;;;;;;;2.63;2.50;;;;;;;24.96;nan;100830.00;4985622;28;20113;-76
2023/08/23 01:24:32;;;;;;;2.70;2.55;;;;;;;24.97;nan;100833.50;4993127;28;20034;-76
2023/08/23 01:26:57;;;;;;;2.45;2.35;;;;;;;24.97;nan;100838.81;4967962;28;20054;-76
2023/08/23 01:29:23;;;;;;;2.60;2.50;;;;;;;24.97;nan;100836.16;4983133;28;20399;-76
2023/08/23 01:31:50;;;;;;;2.78;2.58;;;;;;;24.97;nan;100838.81;4984740;28;20069;-76
2023/08/23 01:34:20;;;;;;;2.50;2.40;;;;;;;24.96;nan;100835.31;4989395;28;20112;-76
2023/08/23 01:36:46;;;;;;;2.70;2.60;;;;;;;24.97;nan;100831.69;4967907;28;20034;-76
2023/08/23 01:39:12;;;;;;;2.60;2.50;;;;;;;24.96;nan;100835.31;4983270;28;20120;-77
2023/08/23 01:41:38;;;;;;;2.67;2.47;;;;;;;24.96;nan;100837.97;4984343;28;20034;-76
2023/08/23 01:44:04;;;;;;;2.83;2.63;;;;;;;24.96;nan;100835.31;4978377;28;20089;-76
2023/08/23 01:46:29;;;;;;;2.90;2.70;;;;;;;24.97;nan;100838.81;4988351;28;20049;-75
2023/08/23 01:48:55;;;;;;;2.80;2.60;;;;;;;24.96;nan;100835.31;4983793;28;20030;-75
2023/08/23 01:51:20;;;;;;;3.25;3.05;;;;;;;24.97;nan;100833.50;4985237;28;20025;-76
2023/08/23 01:53:45;;;;;;;3.05;2.85;;;;;;;24.97;nan;100825.53;4989429;28;20030;-75
2023/08/23 01:56:11;;;;;;;2.50;2.40;;;;;;;24.96;nan;100829.13;4984281;28;20116;-76
2023/08/23 01:58:36;;;;;;;2.80;2.58;;;;;;;24.96;nan;100829.13;4984969;28;20084;-77
2023/08/23 02:01:08;;;;;;;2.60;2.50;;;;;;;24.96;nan;100830.00;4985101;28;20030;-75
2023/08/23 02:03:33;;;;;;;2.90;2.70;;;;;;;24.96;nan;100831.78;4980940;28;20116;-77
2023/08/23 02:05:58;;;;;;;3.28;3.08;;;;;;;24.96;nan;100835.31;4988715;28;20838;-76
2023/08/23 02:08:25;;;;;;;3.20;3.00;;;;;;;24.96;nan;100850.38;4984426;28;20034;-78
2023/08/23 02:10:50;;;;;;;2.65;2.53;;;;;;;24.96;nan;100845.06;4982440;28;20056;-77
2023/08/23 02:13:15;;;;;;;2.58;2.47;;;;;;;24.95;nan;100838.91;4983123;28;20475;-76
2023/08/23 02:16:05;;;;;;;2.72;2.60;;;;;;;24.95;nan;100849.53;4982751;28;20478;-76
2023/08/23 02:18:31;;;;;;;2.40;2.30;;;;;;;24.96;nan;100845.06;4984586;28;20099;-75
2023/08/23 02:20:57;;;;;;;2.90;2.70;;;;;;;24.96;nan;100850.38;4985248;28;20033;-76
2023/08/23 02:23:23;;;;;;;2.53;2.42;;;;;;;24.95;nan;100849.53;4993646;28;20387;-76
2023/08/23 02:25:48;;;;;;;2.75;2.55;;;;;;;24.95;nan;100849.53;4984696;28;20065;-76
2023/08/23 02:28:14;;;;;;;2.85;2.65;;;;;;;24.96;nan;100847.72;4982755;28;20057;-77
2023/08/23 02:30:39;;;;;;;2.67;2.58;;;;;;;24.95;nan;100846.88;4983320;28;20048;-77
2023/08/23 02:33:04;;;;;;;2.58;2.47;;;;;;;24.95;nan;100844.22;4980390;28;20427;-76
2023/08/23 02:35:30;;;;;;;3.15;2.95;;;;;;;24.94;nan;100837.25;4987230;28;20385;-75
2023/08/23 02:37:57;;;;;;;2.55;2.45;;;;;;;24.95;nan;100832.75;4984919;28;20458;-74
2023/08/23 02:40:23;;;;;;;2.30;2.20;;;;;;;24.94;nan;100831.94;4984660;28;20033;-76
2023/08/23 02:42:48;;;;;;;3.38;3.17;;;;;;;24.95;nan;100827.44;4979712;28;20068;-76
2023/08/23 02:45:13;;;;;;;2.60;2.50;;;;;;;24.95;nan;100827.44;4976644;28;20037;-76
2023/08/23 02:47:39;;;;;;;2.72;2.53;;;;;;;24.95;nan;100827.44;4984973;28;20026;-76
2023/08/23 02:50:04;;;;;;;2.60;2.50;;;;;;;24.94;nan;100823.97;4983442;28;20109;-76
2023/08/23 02:52:30;;;;;;;3.00;2.80;;;;;;;24.94;nan;100826.63;4982690;28;20049;-75
2023/08/23 02:54:55;;;;;;;3.00;2.80;;;;;;;24.94;nan;100823.97;4978608;28;20427;-75
2023/08/23 02:57:20;;;;;;;2.88;2.70;;;;;;;24.95;nan;100816.81;4982335;28;20061;-76
2023/08/23 02:59:46;;;;;;;2.97;2.78;;;;;;;24.94;nan;100820.47;4981229;28;20130;-76
2023/08/23 03:02:11;;;;;;;2.90;2.70;;;;;;;24.95;nan;100822.13;4986130;28;20036;-76
2023/08/23 03:04:36;;;;;;;2.47;2.38;;;;;;;24.95;nan;100819.47;4981647;28;20055;-76
2023/08/23 03:07:02;;;;;;;2.40;2.30;;;;;;;24.94;nan;100810.69;4981536;28;20037;-76
2023/08/23 03:09:27;;;;;;;2.83;2.63;;;;;;;24.94;nan;100812.50;4981388;28;20026;-76
2023/08/23 03:11:52;;;;;;;2.72;2.53;;;;;;;24.93;nan;100814.31;4984906;28;20041;-77
2023/08/23 03:14:18;;;;;;;2.67;2.58;;;;;;;24.94;nan;100815.16;4996128;28;20030;-76
2023/08/23 03:16:43;;;;;;;2.67;2.47;;;;;;;24.94;nan;100815.16;4985846;28;20709;-77
2023/08/23 03:19:08;;;;;;;2.83;2.63;;;;;;;24.94;nan;100815.16;4980938;28;20034;-75
2023/08/23 03:21:34;;;;;;;2.70;2.50;;;;;;;24.94;nan;100808.03;4981003;28;20084;-76
2023/08/23 03:23:59;;;;;;;2.75;2.58;;;;;;;24.94;nan;100816.00;4977318;28;20107;-77
2023/08/23 03:26:24;;;;;;;2.75;2.65;;;;;;;24.94;nan;100815.16;4983942;28;20155;-76
2023/08/23 03:28:50;;;;;;;2.90;2.70;;;;;;;24.94;nan;100808.03;4980807;28;20453;-76
2023/08/23 03:31:15;;;;;;;2.65;2.50;;;;;;;24.93;nan;100803.69;4981118;28;20495;-76
2023/08/23 03:33:40;;;;;;;2.63;2.53;;;;;;;24.93;nan;100808.16;4991880;28;20034;-76
2023/08/23 03:36:06;;;;;;;2.53;2.35;;;;;;;24.93;nan;100792.22;4989613;28;20710;-75
2023/08/23 03:38:31;;;;;;;2.53;2.38;;;;;;;24.93;nan;100793.06;4980907;28;20791;-76
2023/08/23 03:40:56;;;;;;;2.78;2.60;;;;;;;24.93;nan;100793.06;4982783;28;20104;-74
2023/08/23 03:43:22;;;;;;;2.75;2.65;;;;;;;24.93;nan;100808.16;4979770;28;20026;-76
2023/08/23 03:45:48;;;;;;;2.80;2.63;;;;;;;24.92;nan;100802.00;4977604;28;20261;-76
2023/08/23 03:48:14;;;;;;;2.95;2.75;;;;;;;24.93;nan;100810.81;4979883;28;20033;-76
2023/08/23 03:50:40;;;;;;;2.83;2.63;;;;;;;24.92;nan;100809.97;4981780;28;20034;-76
2023/08/23 03:53:05;;;;;;;3.10;2.90;;;;;;;24.92;nan;100822.44;4980920;28;20030;-75
2023/08/23 03:55:30;;;;;;;2.53;2.35;;;;;;;24.93;nan;100819.63;4992135;28;20404;-76
2023/08/23 03:57:56;;;;;;;2.60;2.50;;;;;;;24.93;nan;100813.47;4982601;28;20045;-76
2023/08/23 04:00:22;;;;;;;2.78;2.63;;;;;;;24.93;nan;100811.66;4981803;28;20457;-76
2023/08/23 04:02:47;;;;;;;2.60;2.50;;;;;;;24.92;nan;100806.50;4993017;28;20111;-76
2023/08/23 04:05:13;;;;;;;2.55;2.45;;;;;;;24.92;nan;100809.16;4979168;28;20022;-76
2023/08/23 04:07:39;;;;;;;2.90;2.70;;;;;;;24.93;nan;100803.69;4986466;28;20481;-76
2023/08/23 04:10:05;;;;;;;2.80;2.60;;;;;;;24.91;nan;100800.34;4967706;28;20034;-76
2023/08/23 04:12:31;;;;;;;2.60;2.50;;;;;;;24.92;nan;100799.34;4988720;28;20045;-76
2023/08/23 04:14:56;;;;;;;2.83;2.72;;;;;;;24.92;nan;100796.69;4979366;28;20813;-76
2023/08/23 04:17:22;;;;;;;3.00;2.80;;;;;;;24.92;nan;100794.03;4985684;28;20073;-76
2023/08/23 04:19:47;;;;;;;3.08;2.90;;;;;;;24.92;nan;100796.69;4985887;28;20129;-76
2023/08/23 04:22:12;;;;;;;2.90;2.70;;;;;;;24.92;nan;100791.38;4984953;28;20026;-77
2023/08/23 04:24:38;;;;;;;3.15;2.95;;;;;;;24.91;nan;100795.03;4995789;28;20458;-76
2023/08/23 04:27:03;;;;;;;3.00;2.80;;;;;;;24.92;nan;100807.31;4985150;28;20173;-76
2023/08/23 04:29:29;;;;;;;2.88;2.67;;;;;;;24.92;nan;100796.69;4983959;28;20187;-76
2023/08/23 04:31:54;;;;;;;2.95;2.75;;;;;;;24.91;nan;100813.63;4985410;28;20076;-76
2023/08/23 04:34:19;;;;;;;2.70;2.60;;;;;;;24.92;nan;100812.63;4989577;28;20478;-75
2023/08/23 04:36:45;;;;;;;2.70;2.55;;;;;;;24.91;nan;100813.63;4988053;28;20049;-75
2023/08/23 04:39:10;;;;;;;2.55;2.45;;;;;;;24.91;nan;100810.97;4985254;28;20025;-76
2023/08/23 04:41:36;;;;;;;2.88;2.67;;;;;;;24.91;nan;100816.28;4985476;28;20036;-75
2023/08/23 04:44:01;;;;;;;2.58;2.47;;;;;;;24.91;nan;100810.13;4999536;28;20108;-75
2023/08/23 04:46:26;;;;;;;2.92;2.72;;;;;;;24.91;nan;100816.28;4990650;28;21010;-76
2023/08/23 04:48:52;;;;;;;3.00;2.80;;;;;;;24.91;nan;100818.94;4986057;28;20057;-75
2023/08/23 04:51:17;;;;;;;2.50;2.40;;;;;;;24.91;nan;100824.25;4986260;28;20061;-76
2023/08/23 04:53:42;;;;;;;2.80;2.60;;;;;;;24.91;nan;100818.09;4997943;28;20113;-76
2023/08/23 04:56:08;;;;;;;2.90;2.80;;;;;;;24.91;nan;100820.75;4989163;28;20054;-77
2023/08/23 04:58:33;;;;;;;3.03;2.83;;;;;;;24.91;nan;100826.06;4984664;28;20041;-77
2023/08/23 05:01:04;;;;;;;3.00;2.80;;;;;;;24.90;nan;100825.19;4986062;28;20030;-76
2023/08/23 05:03:33;;;;;;;2.80;2.67;;;;;;;24.90;nan;100825.19;4982031;28;20080;-76
2023/08/23 05:05:59;;;;;;;3.10;2.90;;;;;;;24.90;nan;100825.19;4983425;28;20864;-77
2023/08/23 05:08:25;;;;;;;2.80;2.70;;;;;;;24.89;nan;100823.50;4986147;28;20066;-77
2023/08/23 05:10:52;;;;;;;3.10;2.90;;;;;;;24.91;nan;100831.38;4986699;28;20038;-77
2023/08/23 05:13:41;;;;;;;3.08;2.90;;;;;;;24.91;nan;100828.72;4980658;28;20035;-75
2023/08/23 05:16:07;;;;;;;2.70;2.60;;;;;;;24.90;nan;100827.84;4982471;28;20041;-77
2023/08/23 05:18:32;;;;;;;2.92;2.72;;;;;;;24.90;nan;100819.03;4985407;28;20434;-76
2023/08/23 05:21:02;;;;;;;2.83;2.72;;;;;;;24.90;nan;100821.69;4985818;28;20040;-77
2023/08/23 05:23:27;;;;;;;2.63;2.53;;;;;;;24.89;nan;100812.88;4994544;28;20045;-76
2023/08/23 05:25:53;;;;;;;2.78;2.63;;;;;;;24.90;nan;100825.19;4970800;28;20162;-77
2023/08/23 05:28:19;;;;;;;2.88;2.67;;;;;;;24.89;nan;100823.50;4983507;28;20850;-77
2023/08/23 05:30:45;;;;;;;2.90;2.70;;;;;;;24.89;nan;100823.50;4984824;28;20402;-76
2023/08/23 05:33:11;;;;;;;3.33;3.13;;;;;;;24.90;nan;100829.66;4970662;28;20050;-76
2023/08/23 05:35:40;;;;;;;3.30;3.10;;;;;;;24.89;nan;100828.00;4988556;28;20142;-77
2023/08/23 05:38:06;;;;;;;2.80;2.67;;;;;;;24.88;nan;100824.50;4983354;28;20037;-77
2023/08/23 05:40:31;;;;;;;2.80;2.70;;;;;;;24.88;nan;100829.81;4983067;28;20036;-77
2023/08/23 05:42:57;;;;;;;2.95;2.80;;;;;;;24.89;nan;100834.13;4986898;28;20030;-74
2023/08/23 05:45:26;;;;;;;3.10;2.90;;;;;;;24.89;nan;100839.44;4978779;28;20045;-76
2023/08/23 05:47:52;;;;;;;2.78;2.67;;;;;;;24.89;nan;100855.38;4983628;28;20033;-76
2023/08/23 05:50:17;;;;;;;2.95;2.75;;;;;;;24.89;nan;100838.63;4983998;28;20971;-76
2023/08/23 05:52:43;;;;;;;3.25;3.05;;;;;;;24.88;nan;100837.78;4981246;28;20061;-76
2023/08/23 05:55:09;;;;;;;3.05;2.85;;;;;;;24.88;nan;100856.38;4983709;28;20104;-76
2023/08/23 05:57:34;;;;;;;3.20;3.00;;;;;;;24.89;nan;100849.22;4982522;28;20105;-77
2023/08/23 06:00:00;;;;;;;3.30;3.10;;;;;;;24.88;nan;100848.41;4983029;28;20292;-77
2023/08/23 06:02:25;;;;;;;3.10;2.90;;;;;;;24.89;nan;100850.06;4986939;28;20029;-77
2023/08/23 06:04:51;;;;;;;2.88;2.75;;;;;;;24.89;nan;100843.94;4996239;28;20508;-77
2023/08/23 06:07:17;;;;;;;2.90;2.78;;;;;;;24.88;nan;100847.56;4983240;28;20049;-77
2023/08/23 06:09:43;;;;;;;3.20;3.00;;;;;;;24.88;nan;100845.75;4983885;28;21280;-77
2023/08/23 06:12:08;;;;;;;3.13;2.92;;;;;;;24.88;nan;100851.06;4968002;28;20489;-77
2023/08/23 06:14:33;;;;;;;2.92;2.78;;;;;;;24.88;nan;100848.41;4980397;28;20541;-76
2023/08/23 06:16:59;;;;;;;3.03;2.83;;;;;;;24.88;nan;100840.44;4986894;28;20033;-76
2023/08/23 06:19:29;;;;;;;3.10;2.90;;;;;;;24.88;nan;100848.41;4983179;28;20157;-76
2023/08/23 06:21:54;;;;;;;2.85;2.72;;;;;;;24.88;nan;100856.38;4984721;28;20054;-77
2023/08/23 06:24:20;;;;;;;3.53;3.33;;;;;;;24.88;nan;100851.06;4978717;28;20608;-75
2023/08/23 06:27:13;;;;;;;3.10;2.95;;;;;;;24.88;nan;100848.41;4981771;28;20046;-76
2023/08/23 06:29:39;;;;;;;3.15;2.95;;;;;;;24.88;nan;100848.41;4983037;28;20037;-76
2023/08/23 06:32:08;;;;;;;3.40;3.20;;;;;;;24.88;nan;100861.69;4986473;28;20028;-76
2023/08/23 06:34:34;;;;;;;3.13;2.92;;;;;;;24.88;nan;100853.72;4998256;28;20867;-76
2023/08/23 06:37:01;;;;;;;3.10;2.90;;;;;;;24.88;nan;100863.50;4985044;28;20443;-76
2023/08/23 06:39:26;;;;;;;3.17;2.97;;;;;;;24.88;nan;100852.88;4981761;28;20041;-76
2023/08/23 06:41:52;;;;;;;2.90;2.70;;;;;;;24.88;nan;100856.38;4984423;28;20029;-76
2023/08/23 06:44:35;;;;;;;3.10;2.92;;;;;;;24.88;nan;100853.72;4996181;28;20137;-76
2023/08/23 06:47:01;;;;;;;3.55;3.35;;;;;;;24.88;nan;100864.34;4985340;28;20026;-76
2023/08/23 06:49:26;;;;;;;3.30;3.10;;;;;;;24.87;nan;100862.66;4983704;28;20042;-77
2023/08/23 06:51:51;;;;;;;3.30;3.10;;;;;;;24.88;nan;100869.66;4985492;28;20096;-75
2023/08/23 06:54:17;;;;;;;3.22;3.03;;;;;;;24.88;nan;100867.00;4980838;28;20441;-76
2023/08/23 06:56:42;;;;;;;3.35;3.15;;;;;;;24.87;nan;100862.66;4986634;28;21224;-77
2023/08/23 06:59:07;;;;;;;3.05;2.85;;;;;;;24.88;nan;100863.50;4983362;28;20144;-77
2023/08/23 07:01:33;;;;;;;3.30;3.10;;;;;;;24.88;nan;100860.84;4984513;28;20058;-77
2023/08/23 07:03:58;;;;;;;3.00;2.80;;;;;;;24.87;nan;100862.66;4981229;28;20065;-77
2023/08/23 07:06:23;;;;;;;3.13;2.92;;;;;;;24.89;nan;100866.00;4981631;28;20312;-77
2023/08/23 07:08:49;;;;;;;3.28;3.08;;;;;;;24.88;nan;100864.34;4983274;28;20065;-77
2023/08/23 07:11:14;;;;;;;3.17;2.97;;;;;;;24.89;nan;100865.16;4983979;28;20042;-76
2023/08/23 07:13:39;;;;;;;3.10;2.90;;;;;;;24.89;nan;100866.00;4994911;28;20145;-77
2023/08/23 07:16:05;;;;;;;3.35;3.15;;;;;;;24.89;nan;100865.16;4981532;28;20026;-77
2023/08/23 07:18:31;;;;;;;3.35;3.15;;;;;;;24.89;nan;100870.47;4983486;28;20034;-76
2023/08/23 07:20:57;;;;;;;3.40;3.20;;;;;;;24.88;nan;100869.66;4984291;28;20476;-77
2023/08/23 07:23:22;;;;;;;3.28;3.08;;;;;;;24.89;nan;100873.13;4962092;28;20030;-76
2023/08/23 07:25:47;;;;;;;3.60;3.30;;;;;;;24.89;nan;100870.47;4982695;28;20037;-76
2023/08/23 07:28:13;;;;;;;3.30;3.10;;;;;;;24.88;nan;100874.97;4982544;28;20034;-77
2023/08/23 07:30:38;;;;;;;3.45;3.25;;;;;;;24.89;nan;100879.28;4982763;28;20071;-76
2023/08/23 07:33:04;;;;;;;3.35;3.05;;;;;;;24.89;nan;100881.09;4969257;28;20390;-76
2023/08/23 07:35:29;;;;;;;3.30;3.10;;;;;;;24.89;nan;100879.28;4967223;28;20062;-76
2023/08/23 07:37:55;;;;;;;3.00;2.80;;;;;;;24.89;nan;100881.09;4987968;28;20033;-76
2023/08/23 07:40:20;;;;;;;3.15;2.95;;;;;;;24.89;nan;100884.59;4987602;28;20385;-75
2023/08/23 07:42:45;;;;;;;3.20;3.00;;;;;;;24.89;nan;100879.28;4982287;28;20434;-76
2023/08/23 07:45:11;;;;;;;3.50;3.30;;;;;;;24.88;nan;100885.56;4994780;28;20857;-75
2023/08/23 07:47:36;;;;;;;3.50;3.30;;;;;;;24.90;nan;100882.78;4986149;28;20085;-75
2023/08/23 07:50:03;;;;;;;3.25;3.05;;;;;;;24.89;nan;100889.91;4987060;28;20095;-76
2023/08/23 07:52:28;;;;;;;3.25;3.00;;;;;;;24.89;nan;100881.09;4988374;28;20044;-76
2023/08/23 07:54:54;;;;;;;3.60;3.30;;;;;;;24.89;nan;100876.63;4993292;28;20038;-76
2023/08/23 07:57:19;;;;;;;3.05;2.85;;;;;;;24.89;nan;100881.94;4985310;28;20030;-75
2023/08/23 07:59:44;;;;;;;3.38;3.17;;;;;;;24.90;nan;100888.94;4985265;28;20026;-75
2023/08/23 08:02:10;;;;;;;3.10;2.97;;;;;;;24.89;nan;100881.94;4987101;28;20053;-77
2023/08/23 08:04:35;;;;;;;3.40;3.20;;;;;;;24.89;nan;100887.25;4984891;28;20128;-76
2023/08/23 08:07:01;;;;;;;3.53;3.33;;;;;;;24.89;nan;100889.91;4983074;28;20141;-75
2023/08/23 08:09:27;;;;;;;3.22;3.03;;;;;;;24.90;nan;100890.75;4983581;28;20533;-76
2023/08/23 08:11:52;;;;;;;3.20;3.00;;;;;;;24.91;nan;100895.13;4985733;28;20029;-77
2023/08/23 08:14:18;;;;;;;3.65;3.45;;;;;;;24.91;nan;100889.81;4978917;28;20030;-76
2023/08/23 08:16:43;;;;;;;3.15;2.95;;;;;;;24.90;nan;100883.63;4984133;28;20045;-76
2023/08/23 08:19:08;;;;;;;3.10;2.90;;;;;;;24.90;nan;100886.28;4985823;28;21318;-76
2023/08/23 08:21:33;;;;;;;3.03;2.90;;;;;;;24.90;nan;100885.44;4986553;28;20512;-76
2023/08/23 08:23:59;;;;;;;3.55;3.25;;;;;;;24.89;nan;100887.25;4999777;28;20504;-76
2023/08/23 08:26:24;;;;;;;3.60;3.40;;;;;;;24.90;nan;100888.94;4987826;28;20516;-76
2023/08/23 08:28:50;;;;;;;3.83;3.63;;;;;;;24.91;nan;100885.31;4984095;28;20080;-76
2023/08/23 08:31:15;;;;;;;3.50;3.30;;;;;;;24.91;nan;100897.78;4983307;28;20045;-75
2023/08/23 08:33:42;;;;;;;3.63;3.42;;;;;;;24.91;nan;100887.97;4994353;28;20148;-75
2023/08/23 08:36:07;;;;;;;3.25;3.05;;;;;;;24.92;nan;100891.47;4992011;28;20116;-75
2023/08/23 08:38:32;;;;;;;3.22;3.03;;;;;;;24.91;nan;100895.97;4984453;28;20038;-76
2023/08/23 08:40:58;;;;;;;3.90;3.70;;;;;;;24.92;nan;100887.00;4983115;28;20157;-76
2023/08/23 08:43:24;;;;;;;3.60;3.40;;;;;;;24.92;nan;100878.19;4982850;28;20130;-75
2023/08/23 08:45:49;;;;;;;3.33;3.13;;;;;;;24.91;nan;100880.03;4992290;28;20121;-76
2023/08/23 08:48:15;;;;;;;3.47;3.28;;;;;;;24.91;nan;100884.50;4982696;28;20034;-76
2023/08/23 08:50:43;;;;;;;3.67;3.47;;;;;;;24.92;nan;100881.69;4982332;28;20453;-77
2023/08/23 08:53:14;;;;;;;3.40;3.20;;;;;;;24.91;nan;100885.31;4992377;28;20033;-76
2023/08/23 08:55:40;;;;;;;3.30;3.10;;;;;;;24.92;nan;100880.84;4991523;28;20026;-77
2023/08/23 08:58:06;;;;;;;3.67;3.38;;;;;;;24.92;nan;100887.00;4982235;28;20038;-76
2023/08/23 09:00:32;;;;;;;3.40;3.20;;;;;;;24.92;nan;100886.16;4983013;28;20132;-76
2023/08/23 09:02:58;;;;;;;3.67;3.42;;;;;;;24.93;nan;100898.47;4981941;28;20041;-76
2023/08/23 09:05:24;;;;;;;4.30;4.00;;;;;;;24.92;nan;100892.31;4980274;28;20066;-75
2023/08/23 09:07:50;;;;;;;3.55;3.35;;;;;;;24.93;nan;100898.47;4983372;28;20044;-76
2023/08/23 09:10:16;;;;;;;3.03;2.90;;;;;;;24.93;nan;100895.81;4966152;28;20029;-74
2023/08/23 09:12:41;;;;;;;3.70;3.50;;;;;;;24.92;nan;100892.31;4989114;28;20042;-75
2023/08/23 09:15:07;;;;;;;3.70;3.50;;;;;;;24.93;nan;100893.16;4996598;28;20088;-76
2023/08/23 09:17:34;;;;;;;3.75;3.50;;;;;;;24.93;nan;100880.72;4982864;28;20509;-76
2023/08/23 09:20:03;;;;;;;3.90;3.70;;;;;;;24.91;nan;100877.38;4974587;28;20116;-76
2023/08/23 09:22:29;;;;;;;3.70;3.40;;;;;;;24.92;nan;100871.06;4986669;28;20121;-76
2023/08/23 09:24:55;;;;;;;3.60;3.40;;;;;;;24.94;nan;100876.25;4993569;28;20759;-75
2023/08/23 09:27:22;;;;;;;3.58;3.38;;;;;;;24.93;nan;100861.28;4981796;28;20845;-77
2023/08/23 09:29:47;;;;;;;3.60;3.40;;;;;;;24.93;nan;100861.28;4984886;28;21290;-77
2023/08/23 09:32:13;;;;;;;3.95;3.75;;;;;;;24.93;nan;100867.44;4988069;28;20117;-76
2023/08/23 09:34:38;;;;;;;3.30;3.10;;;;;;;24.93;nan;100862.13;4999327;28;20033;-76
2023/08/23 09:37:10;;;;;;;3.60;3.38;;;;;;;24.92;nan;100857.78;4987138;28;20026;-77
2023/08/23 09:39:35;;;;;;;3.58;3.38;;;;;;;24.93;nan;100862.13;4985887;28;20026;-77
2023/08/23 09:42:05;;;;;;;3.58;3.38;;;;;;;24.93;nan;100867.44;4985435;28;20029;-76
2023/08/23 09:44:35;;;;;;;3.50;3.30;;;;;;;24.94;nan;100863.81;4978934;28;20034;-77
2023/08/23 09:47:05;;;;;;;3.50;3.30;;;;;;;24.94;nan;100869.09;4967068;28;20126;-74
2023/08/23 09:49:34;;;;;;;3.80;3.60;;;;;;;24.94;nan;100873.59;4983149;28;20034;-77
2023/08/23 09:55:21;;;;;;;3.88;3.58;;;;;;;24.93;nan;100864.78;4983892;28;20099;-76
2023/08/23 09:57:47;;;;;;;4.30;4.00;;;;;;;24.94;nan;100868.28;4984278;28;20489;-76
2023/08/23 10:00:13;;;;;;;3.92;3.72;;;;;;;24.95;nan;100875.25;4983272;28;20386;-77
2023/08/23 10:02:39;;;;;;;3.63;3.42;;;;;;;24.95;nan;100875.25;4982360;28;20026;-76
2023/08/23 10:05:06;;;;;;;3.85;3.65;;;;;;;24.94;nan;100866.44;4978215;28;20076;-75
2023/08/23 10:07:34;;;;;;;3.53;3.30;;;;;;;24.94;nan;100868.28;4982482;28;20028;-76
2023/08/23 10:09:59;;;;;;;3.97;3.78;;;;;;;24.94;nan;100866.44;4984374;28;20041;-77
2023/08/23 10:12:25;;;;;;;3.35;3.15;;;;;;;24.94;nan;100863.81;4988093;28;20029;-76
2023/08/23 10:14:51;;;;;;;3.72;3.47;;;;;;;24.94;nan;100847.88;4998380;28;20038;-76
2023/08/23 10:17:19;;;;;;;4.00;3.80;;;;;;;24.94;nan;100852.34;4966941;28;20026;-76
2023/08/23 10:19:49;;;;;;;4.32;4.03;;;;;;;24.94;nan;100852.34;4983117;28;20186;-76
2023/08/23 10:22:16;;;;;;;4.30;4.00;;;;;;;24.94;nan;100853.19;4983596;28;20389;-76
2023/08/23 10:24:45;;;;;;;3.92;3.70;;;;;;;24.95;nan;100864.63;4978272;28;20057;-77
2023/08/23 10:27:11;;;;;;;4.00;3.70;;;;;;;24.95;nan;100861.97;4982055;28;20443;-76
2023/08/23 10:29:50;;;;;;;3.75;3.55;;;;;;;24.94;nan;100850.50;4983646;28;20038;-76
2023/08/23 10:32:15;;;;;;;3.95;3.67;;;;;;;24.94;nan;100849.69;4982001;28;20133;-76
2023/08/23 10:34:41;;;;;;;4.07;3.78;;;;;;;24.95;nan;100860.16;4979158;28;20530;-77
2023/08/23 10:37:18;;;;;;;3.92;3.72;;;;;;;24.95;nan;100864.63;4982071;28;20071;-76
2023/08/23 10:39:51;;;;;;;3.90;3.70;;;;;;;24.95;nan;100860.16;4983471;28;20041;-77
2023/08/23 10:42:17;;;;;;;4.00;3.80;;;;;;;24.95;nan;100849.53;4980755;28;20137;-77
2023/08/23 10:44:44;;;;;;;4.00;3.80;;;;;;;24.94;nan;100842.56;4977463;28;20113;-77
2023/08/23 10:47:09;;;;;;;3.92;3.72;;;;;;;24.95;nan;100835.41;4965857;28;20037;-77
2023/08/23 10:49:35;;;;;;;3.80;3.60;;;;;;;24.94;nan;100834.59;4984651;28;20030;-77
2023/08/23 10:52:00;;;;;;;4.30;4.00;;;;;;;24.95;nan;100822.97;4983115;28;20091;-77
2023/08/23 10:54:27;;;;;;;4.57;4.28;;;;;;;24.95;nan;100838.06;4994963;28;20057;-76
2023/08/23 10:56:52;;;;;;;3.80;3.60;;;;;;;24.95;nan;100840.72;4986999;28;20066;-77
2023/08/23 10:59:17;;;;;;;4.00;3.70;;;;;;;24.94;nan;100826.63;4983498;28;20149;-76
2023/08/23 11:01:43;;;;;;;4.43;4.05;;;;;;;24.95;nan;100836.25;4984068;28;20083;-77
2023/08/23 11:04:08;;;;;;;3.75;3.55;;;;;;;24.95;nan;100832.75;4978567;28;20382;-77
2023/08/23 11:06:35;;;;;;;4.40;4.10;;;;;;;24.95;nan;100828.28;4988116;28;20038;-77
2023/08/23 11:09:00;;;;;;;3.75;3.55;;;;;;;24.94;nan;100826.63;4984271;28;20021;-76
2023/08/23 11:11:29;;;;;;;4.38;4.07;;;;;;;24.95;nan;100825.63;4987582;28;21312;-76
2023/08/23 11:13:55;;;;;;;;;;;;;;;24.95;nan;100825.63;5000826;28;20036;-75
2023/08/23 11:16:21;;;;;;;3.90;3.60;;;;;;;24.96;nan;100835.31;4995174;28;20449;-77
2023/08/23 11:18:46;;;;;;;3.60;3.40;;;;;;;24.96;nan;100829.13;4987053;28;20030;-76
2023/08/23 11:21:12;;;;;;;4.07;3.78;;;;;;;24.94;nan;100837.25;4986406;28;20076;-77
2023/08/23 11:23:38;;;;;;;4.40;4.13;;;;;;;24.95;nan;100838.91;4990052;28;20052;-76
2023/08/23 11:26:03;;;;;;;3.67;3.47;;;;;;;24.95;nan;100833.59;4993092;28;20054;-77
2023/08/23 11:28:30;;;;;;;3.83;3.63;;;;;;;24.95;nan;100828.28;4985491;28;20069;-77
2023/08/23 11:30:57;;;;;;;4.07;3.88;;;;;;;24.95;nan;100833.59;4988106;28;20030;-77
2023/08/23 11:33:23;;;;;;;3.90;3.70;;;;;;;24.95;nan;100828.28;4995445;28;20219;-76
2023/08/23 11:35:48;;;;;;;3.70;3.50;;;;;;;24.96;nan;100826.47;4988700;28;20784;-77
2023/08/23 11:38:14;;;;;;;3.88;3.67;;;;;;;24.96;nan;100834.44;4969860;28;20049;-76
2023/08/23 11:40:39;;;;;;;3.90;3.60;;;;;;;24.95;nan;100836.25;4986657;28;20038;-76